KSDY/SDY METAR and TAF weather

Enter ICAO airport designator
Station Type Date Time Source
KSDY METAR 2020/07/15 00:56 UTC NOAA

KSDY 150056Z AUTO 30012G19KT 10SM CLR 26/03 A2992 RMK AO2 SLP523 T02610028


Station Type Date Time Source
KSDY Decoded METAR 2020/07/15 00:56 UTC NOAA

Sidney-Richland, MT, United States (KSDY) 47-42N 104-12W
Jul 14, 2020 - 08:56 PM EDT / 2020.07.15 0056 UTC
Wind: from the WNW (300 degrees) at 14 MPH (12 KT) gusting to 22 MPH (19 KT):0
Visibility: 10 mile(s):0
Sky conditions: clear
Temperature: 79.0 F (26.1 C)
Dew Point: 37.0 F (2.8 C)
Relative Humidity: 22%
Pressure (altimeter): 29.92 in. Hg (1013 hPa)
ob: KSDY 150056Z AUTO 30012G19KT 10SM CLR 26/03 A2992 RMK AO2 SLP523 T02610028
cycle: 1

Station Type Date Time Source
KSDY TAF 2020/07/14 18:22 UTC NOAA

TAF KSDY 141819Z 1418/1518 26014KT P6SM FEW080
FM142000 27016G24KT P6SM SKC
FM142100 27015KT P6SM FEW080
FM150400 VRB05KT P6SM SKC
FM151600 24010G18KT P6SM FEW140

Example: see airport list